Time;durP1;ratioP1;P1;durP2;ratioP2;P2;SDS_P1;SDS_P2;PMS_P1;PMS_P2;Temp;Humidity;BMP_temperature;BMP_pressure;BME280_temperature;BME280_humidity;BME280_pressure;Samples;Min_cycle;Max_cycle;Signal;HPM_P1;HPM_P2
2023/08/17 00:00:12;;;;;;;6.33;4.10;;;19.50;99.90;;;;;;5068280;28;20567;-68
2023/08/17 00:02:38;;;;;;;5.17;3.77;;;19.50;99.90;;;;;;5068151;28;20199;-67
2023/08/17 00:05:06;;;;;;;8.40;4.90;;;19.50;99.90;;;;;;5068092;28;20417;-68
2023/08/17 00:07:32;;;;;;;7.33;4.40;;;19.40;99.90;;;;;;5049848;28;20819;-68
2023/08/17 00:09:57;;;;;;;6.73;4.50;;;19.40;99.90;;;;;;5050068;28;20425;-68
2023/08/17 00:12:23;;;;;;;6.17;4.40;;;19.30;99.90;;;;;;5067979;28;20626;-68
2023/08/17 00:14:48;;;;;;;5.80;4.07;;;19.30;99.90;;;;;;5067920;28;20191;-68
2023/08/17 00:17:14;;;;;;;5.93;4.50;;;19.30;99.90;;;;;;5067833;28;20231;-68
2023/08/17 00:19:39;;;;;;;10.90;4.30;;;19.30;99.90;;;;;;5067995;28;20640;-68
2023/08/17 00:22:05;;;;;;;6.73;4.30;;;19.20;99.90;;;;;;5067965;28;20223;-68
2023/08/17 00:24:30;;;;;;;6.80;3.93;;;19.20;99.90;;;;;;5049906;28;20188;-68
2023/08/17 00:26:56;;;;;;;10.93;4.93;;;19.20;99.90;;;;;;5068034;28;20743;-68
2023/08/17 00:29:21;;;;;;;6.07;4.30;;;19.20;99.90;;;;;;5067768;28;20230;-68
2023/08/17 00:31:47;;;;;;;8.20;5.03;;;19.00;99.90;;;;;;5067802;28;20203;-68
2023/08/17 00:34:13;;;;;;;12.53;4.40;;;19.00;99.90;;;;;;5049617;28;20202;-68
2023/08/17 00:36:38;;;;;;;5.70;4.73;;;18.90;99.90;;;;;;5067705;28;20194;-68
2023/08/17 00:39:04;;;;;;;9.17;4.40;;;19.00;99.90;;;;;;5071081;28;20584;-68
2023/08/17 00:41:30;;;;;;;9.53;4.93;;;19.00;99.90;;;;;;5071406;28;20187;-68
2023/08/17 00:43:56;;;;;;;6.40;4.57;;;19.00;99.90;;;;;;5071295;28;20183;-68
2023/08/17 00:46:22;;;;;;;5.00;4.50;;;19.00;99.90;;;;;;5071288;28;20824;-67
2023/08/17 00:48:48;;;;;;;7.73;4.73;;;19.00;99.90;;;;;;5071335;28;20462;-68
2023/08/17 00:51:14;;;;;;;8.73;4.27;;;18.90;99.90;;;;;;5071104;28;20417;-68
2023/08/17 00:53:41;;;;;;;6.10;4.50;;;18.90;99.90;;;;;;5071102;28;20277;-68
2023/08/17 00:56:08;;;;;;;7.73;4.00;;;18.90;99.90;;;;;;5070940;28;20525;-67
2023/08/17 00:58:34;;;;;;;7.70;4.63;;;18.80;99.90;;;;;;5070919;28;20476;-67
2023/08/17 01:01:00;;;;;;;6.90;4.83;;;18.70;99.90;;;;;;5070895;28;20413;-67
2023/08/17 01:03:31;;;;;;;5.37;4.37;;;18.50;99.90;;;;;;5052757;28;20222;-67
2023/08/17 01:05:57;;;;;;;7.90;4.23;;;18.60;99.90;;;;;;5070823;28;20421;-68
2023/08/17 01:08:23;;;;;;;5.13;4.33;;;18.60;99.90;;;;;;5052502;28;20477;-68
2023/08/17 01:11:23;;;;;;;5.50;4.03;;;18.50;99.90;;;;;;5070873;28;20189;-68
2023/08/17 01:13:55;;;;;;;9.33;5.53;;;18.60;99.90;;;;;;5070531;28;20451;-68
2023/08/17 01:16:27;;;;;;;7.40;4.57;;;18.50;99.90;;;;;;5070492;28;20413;-68
2023/08/17 01:18:54;;;;;;;8.50;5.20;;;18.50;99.90;;;;;;5070438;28;20551;-68
2023/08/17 01:21:23;;;;;;;6.50;4.43;;;18.40;99.90;;;;;;5070360;28;20428;-68
2023/08/17 01:23:50;;;;;;;5.80;4.87;;;18.50;99.90;;;;;;5070218;28;20422;-69
2023/08/17 01:26:16;;;;;;;7.10;4.87;;;18.50;99.90;;;;;;5051960;28;20436;-68
2023/08/17 01:28:46;;;;;;;5.53;4.60;;;18.50;99.90;;;;;;5070289;28;20432;-69
2023/08/17 01:31:19;;;;;;;9.90;4.70;;;18.40;99.90;;;;;;5070006;28;20445;-68
2023/08/17 01:33:55;;;;;;;8.27;5.10;;;18.20;99.90;;;;;;5052991;28;20425;-68
2023/08/17 01:36:31;;;;;;;7.30;4.77;;;18.10;99.90;;;;;;5070139;28;20534;-68
2023/08/17 01:39:00;;;;;;;6.20;4.93;;;18.10;99.90;;;;;;5070049;28;20483;-68
2023/08/17 01:41:26;;;;;;;11.30;4.30;;;18.10;99.90;;;;;;5052083;28;20507;-68
2023/08/17 01:43:53;;;;;;;5.27;4.27;;;18.20;99.90;;;;;;5070048;28;20410;-68
2023/08/17 01:46:19;;;;;;;9.70;5.10;;;18.30;99.90;;;;;;5069971;28;20530;-68
2023/08/17 01:48:46;;;;;;;7.93;5.57;;;18.30;99.90;;;;;;5068848;28;21195;-68
2023/08/17 01:51:21;;;;;;;9.20;4.80;;;18.30;99.90;;;;;;5069725;28;20269;-68
2023/08/17 01:53:46;;;;;;;11.37;5.40;;;18.40;99.90;;;;;;5069815;28;21002;-68
2023/08/17 01:56:12;;;;;;;6.50;5.30;;;18.40;99.90;;;;;;5069748;28;20932;-68
2023/08/17 01:58:38;;;;;;;6.97;5.40;;;18.40;99.90;;;;;;5069579;28;20719;-68
2023/08/17 02:01:03;;;;;;;9.13;4.60;;;18.40;99.90;;;;;;5069785;28;20193;-68
2023/08/17 02:03:29;;;;;;;6.07;5.10;;;18.40;99.90;;;;;;5069710;28;20670;-68
2023/08/17 02:06:01;;;;;;;6.27;4.63;;;18.40;99.90;;;;;;5069684;28;20190;-68
2023/08/17 02:08:27;;;;;;;5.80;5.20;;;18.30;99.90;;;;;;5069752;28;20186;-68
2023/08/17 02:10:53;;;;;;;8.73;4.93;;;18.20;99.90;;;;;;5069699;28;20433;-68
2023/08/17 02:13:19;;;;;;;8.33;4.97;;;18.20;99.90;;;;;;5069423;28;20202;-68
2023/08/17 02:15:46;;;;;;;5.20;4.80;;;18.20;99.90;;;;;;5069478;28;21004;-68
2023/08/17 02:18:12;;;;;;;8.10;5.17;;;18.30;99.90;;;;;;5069466;28;20587;-68
2023/08/17 02:20:37;;;;;;;5.20;4.50;;;18.10;99.90;;;;;;5069307;28;20417;-68
2023/08/17 02:23:03;;;;;;;10.33;4.80;;;18.20;99.90;;;;;;5069441;28;20210;-68
2023/08/17 02:25:35;;;;;;;8.53;5.90;;;18.10;99.90;;;;;;5069448;28;20191;-67
2023/08/17 02:28:03;;;;;;;8.23;5.87;;;18.00;99.90;;;;;;5052225;28;20193;-68
2023/08/17 02:30:29;;;;;;;10.40;5.30;;;17.90;99.90;;;;;;5069023;28;20441;-67
2023/08/17 02:32:55;;;;;;;10.43;6.17;;;17.90;99.90;;;;;;5069096;28;20448;-68
2023/08/17 02:35:20;;;;;;;10.80;5.90;;;17.90;99.90;;;;;;5069097;28;20271;-68
2023/08/17 02:37:46;;;;;;;6.20;4.90;;;17.90;99.90;;;;;;5069055;28;20215;-68
2023/08/17 02:40:11;;;;;;;11.37;6.90;;;17.90;99.90;;;;;;5069039;28;20193;-68
2023/08/17 02:42:37;;;;;;;8.20;5.87;;;17.90;99.90;;;;;;5068889;28;20230;-68
2023/08/17 02:45:03;;;;;;;9.10;5.70;;;17.90;99.90;;;;;;5050988;28;20197;-68
2023/08/17 02:47:28;;;;;;;13.17;6.50;;;18.00;99.90;;;;;;5068920;28;20252;-68
2023/08/17 02:49:54;;;;;;;8.17;5.83;;;18.00;99.90;;;;;;5068757;28;20272;-68
2023/08/17 02:52:20;;;;;;;11.33;6.00;;;18.10;99.90;;;;;;5068868;28;20207;-68
2023/08/17 02:54:45;;;;;;;8.60;5.37;;;18.20;99.90;;;;;;5050715;28;20678;-67
2023/08/17 02:57:11;;;;;;;5.37;4.87;;;18.20;99.90;;;;;;5068828;28;20182;-67
2023/08/17 02:59:37;;;;;;;11.40;6.43;;;18.30;99.90;;;;;;5068586;28;20221;-68
2023/08/17 03:02:02;;;;;;;6.57;5.30;;;18.30;99.90;;;;;;5050415;28;20476;-68
2023/08/17 03:04:28;;;;;;;8.20;5.10;;;18.30;99.90;;;;;;5068654;28;20237;-68
2023/08/17 03:06:54;;;;;;;6.03;5.43;;;18.30;99.90;;;;;;5068672;28;20190;-68
2023/08/17 03:09:19;;;;;;;10.73;6.27;;;18.20;99.90;;;;;;5068796;28;20240;-67
2023/08/17 03:11:45;;;;;;;9.20;5.60;;;18.20;99.90;;;;;;5068661;28;20226;-68
2023/08/17 03:14:10;;;;;;;6.40;4.97;;;18.00;99.90;;;;;;5068705;28;20187;-68
2023/08/17 03:16:36;;;;;;;8.33;6.20;;;18.10;99.90;;;;;;5068736;28;20194;-67
2023/08/17 03:19:03;;;;;;;9.73;6.10;;;18.10;99.90;;;;;;5068756;28;20219;-68
2023/08/17 03:21:28;;;;;;;6.50;5.77;;;18.10;99.90;;;;;;5068490;28;20210;-68
2023/08/17 03:23:54;;;;;;;9.87;6.13;;;18.10;99.90;;;;;;5068717;28;20859;-67
2023/08/17 03:26:19;;;;;;;11.87;6.80;;;18.10;99.90;;;;;;5068785;28;20189;-67
2023/08/17 03:28:45;;;;;;;6.03;5.27;;;18.00;99.90;;;;;;5068904;28;20623;-68
2023/08/17 03:31:11;;;;;;;10.30;5.60;;;18.00;99.90;;;;;;5068789;28;20293;-68
2023/08/17 03:33:36;;;;;;;10.30;6.60;;;18.10;99.90;;;;;;5069011;28;20731;-68
2023/08/17 03:36:03;;;;;;;7.53;5.70;;;18.00;99.90;;;;;;5069092;28;20224;-68
2023/08/17 03:38:28;;;;;;;7.10;5.77;;;18.10;99.90;;;;;;5069010;28;20500;-68
2023/08/17 03:40:54;;;;;;;12.93;6.90;;;18.10;99.90;;;;;;5069106;28;20890;-69
2023/08/17 03:43:20;;;;;;;7.17;6.00;;;18.00;99.90;;;;;;5069137;28;20209;-68
2023/08/17 03:45:45;;;;;;;12.23;6.17;;;18.00;99.90;;;;;;5069248;28;20421;-68
2023/08/17 03:48:12;;;;;;;7.77;5.83;;;17.90;99.90;;;;;;5051029;28;20688;-68
2023/08/17 03:50:38;;;;;;;9.50;6.07;;;17.90;99.90;;;;;;5068991;28;20187;-67
2023/08/17 03:53:03;;;;;;;11.30;5.70;;;17.90;99.90;;;;;;5050575;28;20483;-68
2023/08/17 03:55:29;;;;;;;7.60;5.30;;;17.90;99.90;;;;;;5068793;28;20699;-68
2023/08/17 03:57:55;;;;;;;12.33;7.53;;;17.80;99.90;;;;;;5068597;28;20214;-67
2023/08/17 04:00:20;;;;;;;9.17;6.80;;;17.80;99.90;;;;;;5068332;28;20189;-67
2023/08/17 04:02:46;;;;;;;7.00;5.87;;;17.80;99.90;;;;;;5068192;28;20247;-67
2023/08/17 04:05:12;;;;;;;8.30;7.00;;;17.80;99.90;;;;;;5068144;28;20177;-67
2023/08/17 04:07:38;;;;;;;7.47;6.37;;;17.80;99.90;;;;;;5068272;28;20448;-68
2023/08/17 04:10:05;;;;;;;17.60;6.50;;;17.80;99.90;;;;;;5068086;28;20483;-68
2023/08/17 04:12:31;;;;;;;6.03;5.43;;;17.70;99.90;;;;;;5051036;28;20222;-70
2023/08/17 04:14:57;;;;;;;12.23;8.10;;;17.70;99.90;;;;;;5052743;28;20426;-70
2023/08/17 04:17:22;;;;;;;6.80;6.10;;;17.80;99.90;;;;;;5070464;28;20222;-70
2023/08/17 04:19:48;;;;;;;11.07;6.53;;;17.80;99.90;;;;;;5070383;28;20740;-70
2023/08/17 04:22:13;;;;;;;7.50;5.20;;;17.70;99.90;;;;;;5070124;28;20210;-70
2023/08/17 04:24:39;;;;;;;9.93;6.50;;;17.70;99.90;;;;;;5052214;28;20186;-70
2023/08/17 04:27:05;;;;;;;8.57;5.90;;;17.90;99.90;;;;;;5052084;28;20563;-69
2023/08/17 04:29:31;;;;;;;7.60;6.30;;;17.90;99.90;;;;;;5051848;28;20194;-70
2023/08/17 04:31:57;;;;;;;9.60;5.93;;;17.80;99.90;;;;;;5070080;28;20205;-69
2023/08/17 04:34:23;;;;;;;6.63;5.40;;;17.80;99.90;;;;;;5052104;28;20434;-70
2023/08/17 04:36:48;;;;;;;12.97;6.80;;;17.80;99.90;;;;;;5069979;28;20562;-70
2023/08/17 04:39:15;;;;;;;9.70;6.17;;;17.80;99.90;;;;;;5069694;28;20790;-70
2023/08/17 04:41:40;;;;;;;6.50;5.80;;;17.70;99.90;;;;;;5069941;28;20473;-69
2023/08/17 04:44:06;;;;;;;7.87;6.97;;;17.80;99.90;;;;;;5070172;28;20191;-69
2023/08/17 04:46:31;;;;;;;7.10;6.40;;;17.70;99.90;;;;;;5070061;28;20184;-69
2023/08/17 04:48:57;;;;;;;8.67;6.93;;;17.80;99.90;;;;;;5069748;28;20195;-69
2023/08/17 04:51:23;;;;;;;8.00;7.00;;;17.80;99.90;;;;;;5069614;28;20189;-70
2023/08/17 04:53:48;;;;;;;8.10;6.30;;;17.90;99.90;;;;;;5070115;28;20185;-70
2023/08/17 04:56:14;;;;;;;12.33;6.87;;;17.90;99.90;;;;;;5069904;28;20190;-70
2023/08/17 04:58:39;;;;;;;14.83;8.20;;;17.90;99.90;;;;;;5051604;28;20213;-69
2023/08/17 05:01:05;;;;;;;9.57;6.67;;;18.00;99.90;;;;;;5069820;28;20279;-69
2023/08/17 05:03:31;;;;;;;8.77;7.87;;;18.10;99.90;;;;;;5034992;28;20203;-69
2023/08/17 05:05:56;;;;;;;9.10;7.40;;;18.10;99.90;;;;;;5052057;28;20179;-69
2023/08/17 05:08:22;;;;;;;6.77;6.17;;;18.10;99.90;;;;;;5070165;28;20421;-69
2023/08/17 05:10:48;;;;;;;7.00;5.57;;;18.10;99.90;;;;;;5070253;28;20697;-70
2023/08/17 05:13:14;;;;;;;10.43;6.57;;;18.10;99.90;;;;;;5052034;28;20239;-70
2023/08/17 05:15:39;;;;;;;8.77;6.97;;;18.20;99.90;;;;;;5070300;28;20487;-69
2023/08/17 05:18:05;;;;;;;16.37;7.00;;;18.20;99.90;;;;;;5052165;28;20260;-70
2023/08/17 05:20:31;;;;;;;9.27;7.10;;;18.30;99.90;;;;;;5070586;28;20258;-69
2023/08/17 05:22:56;;;;;;;7.63;6.90;;;18.40;99.90;;;;;;5069692;28;20601;-69
2023/08/17 05:25:22;;;;;;;11.33;7.50;;;18.40;99.90;;;;;;5069993;28;20199;-69
2023/08/17 05:27:49;;;;;;;9.57;7.00;;;18.60;99.90;;;;;;5069652;28;20187;-69
2023/08/17 05:30:15;;;;;;;11.03;8.27;;;18.70;99.90;;;;;;5069326;28;20586;-69
2023/08/17 05:32:41;;;;;;;9.10;8.03;;;18.80;99.90;;;;;;5069003;28;20448;-69
2023/08/17 05:35:07;;;;;;;10.17;7.37;;;18.90;99.90;;;;;;5069027;28;20428;-70
2023/08/17 05:37:32;;;;;;;11.23;7.77;;;18.90;99.90;;;;;;5068973;28;20186;-70
2023/08/17 05:39:58;;;;;;;11.00;8.30;;;18.90;99.90;;;;;;5050880;28;20468;-70
2023/08/17 05:42:24;;;;;;;11.10;9.57;;;19.00;99.90;;;;;;5068609;28;20245;-70
2023/08/17 05:44:49;;;;;;;17.20;9.77;;;19.10;99.90;;;;;;5068752;28;20187;-69
2023/08/17 05:47:17;;;;;;;24.10;9.67;;;19.10;99.90;;;;;;5068927;28;20561;-69
2023/08/17 05:49:43;;;;;;;10.13;7.47;;;19.20;99.90;;;;;;5050877;28;20247;-70
2023/08/17 05:52:08;;;;;;;9.40;7.20;;;19.30;99.90;;;;;;5069051;28;20448;-70
2023/08/17 05:54:34;;;;;;;11.47;7.57;;;19.50;99.90;;;;;;5050230;28;20194;-70
2023/08/17 05:57:01;;;;;;;11.47;7.90;;;19.50;99.90;;;;;;5068453;28;20183;-70
2023/08/17 05:59:26;;;;;;;7.90;7.20;;;19.50;99.90;;;;;;5050163;28;20784;-70
2023/08/17 06:01:52;;;;;;;10.27;7.30;;;19.50;99.90;;;;;;5050118;28;20524;-70
2023/08/17 06:04:18;;;;;;;8.70;7.80;;;19.60;99.90;;;;;;5050153;28;20663;-70
2023/08/17 06:06:43;;;;;;;8.77;7.63;;;19.60;99.90;;;;;;5068298;28;20688;-67
2023/08/17 06:09:09;;;;;;;12.87;8.47;;;19.70;99.90;;;;;;5068238;28;20190;-68
2023/08/17 06:11:34;;;;;;;10.20;8.80;;;19.70;99.90;;;;;;5068388;28;20227;-68
2023/08/17 06:14:00;;;;;;;12.23;8.73;;;19.70;99.90;;;;;;5050159;28;20302;-68
2023/08/17 06:16:26;;;;;;;12.73;9.17;;;19.80;99.90;;;;;;5050077;28;20265;-68
2023/08/17 06:18:51;;;;;;;15.70;10.13;;;19.90;99.90;;;;;;5067902;28;20936;-68
2023/08/17 06:21:17;;;;;;;14.43;10.23;;;20.00;99.90;;;;;;5067979;28;20190;-68
2023/08/17 06:23:42;;;;;;;14.77;11.60;;;20.10;99.90;;;;;;5049659;28;20737;-68
2023/08/17 06:26:08;;;;;;;17.17;10.90;;;20.20;99.90;;;;;;5068110;28;20201;-68
2023/08/17 06:28:34;;;;;;;18.07;11.93;;;20.40;99.90;;;;;;5067771;28;20222;-68
2023/08/17 06:30:59;;;;;;;15.43;10.90;;;20.50;99.90;;;;;;5067753;28;20678;-68
2023/08/17 06:33:25;;;;;;;16.83;11.23;;;20.40;99.90;;;;;;5067574;28;20725;-68
2023/08/17 06:35:51;;;;;;;13.20;10.50;;;20.40;99.90;;;;;;5067034;28;20185;-68
2023/08/17 06:38:16;;;;;;;14.10;11.00;;;20.40;99.90;;;;;;5067769;28;20211;-68
2023/08/17 06:40:42;;;;;;;13.60;9.53;;;20.40;99.90;;;;;;5067753;28;20195;-68
2023/08/17 06:43:09;;;;;;;16.10;11.20;;;20.50;99.90;;;;;;5049172;28;20214;-68
2023/08/17 06:45:35;;;;;;;12.70;9.60;;;20.50;99.90;;;;;;5049326;28;20794;-68
2023/08/17 06:48:01;;;;;;;11.10;9.63;;;20.50;99.90;;;;;;5067592;28;20426;-67
2023/08/17 06:50:28;;;;;;;10.03;8.10;;;20.60;99.90;;;;;;5067468;28;20439;-68
2023/08/17 06:52:54;;;;;;;13.73;8.80;;;20.70;99.90;;;;;;5067473;28;20452;-68
2023/08/17 06:55:19;;;;;;;10.50;7.87;;;20.70;99.90;;;;;;5067482;28;20444;-68
2023/08/17 06:57:45;;;;;;;11.00;8.50;;;20.80;99.90;;;;;;5067136;28;20193;-68
2023/08/17 07:00:12;;;;;;;9.70;7.20;;;20.90;99.90;;;;;;5067577;28;20187;-68
2023/08/17 07:02:37;;;;;;;7.90;7.10;;;20.90;99.90;;;;;;5067359;28;20743;-68
2023/08/17 07:05:03;;;;;;;7.80;7.00;;;20.80;99.90;;;;;;5067436;28;20414;-68
2023/08/17 07:07:31;;;;;;;10.80;8.20;;;20.90;99.90;;;;;;5067426;28;20740;-67
2023/08/17 07:09:59;;;;;;;10.87;9.73;;;20.90;99.90;;;;;;5067445;28;20417;-67
2023/08/17 07:12:25;;;;;;;12.30;9.60;;;20.80;99.90;;;;;;5067308;28;21091;-67
2023/08/17 07:14:51;;;;;;;9.90;8.93;;;20.70;99.90;;;;;;5049348;28;20418;-67
2023/08/17 07:17:16;;;;;;;9.20;7.50;;;20.70;99.90;;;;;;5067202;28;20179;-66
2023/08/17 07:19:42;;;;;;;11.30;7.53;;;20.80;99.90;;;;;;5067079;28;20453;-67
2023/08/17 07:22:08;;;;;;;10.50;7.70;;;21.00;99.90;;;;;;5067097;28;20315;-66
2023/08/17 07:24:33;;;;;;;9.27;8.23;;;21.10;99.90;;;;;;5048977;28;20179;-66
2023/08/17 07:26:59;;;;;;;11.93;7.90;;;21.10;99.90;;;;;;5048954;28;20803;-66
2023/08/17 07:29:25;;;;;;;10.43;7.93;;;21.20;99.90;;;;;;5067140;28;20871;-66
2023/08/17 07:31:50;;;;;;;8.50;7.67;;;21.30;99.90;;;;;;5067400;28;20216;-68
2023/08/17 07:34:16;;;;;;;11.70;8.60;;;21.40;99.90;;;;;;5066837;28;20995;-67
2023/08/17 07:36:42;;;;;;;7.33;6.73;;;21.50;99.90;;;;;;5066983;28;20184;-67
2023/08/17 07:39:07;;;;;;;13.80;8.27;;;21.60;99.90;;;;;;5066922;28;20227;-67
2023/08/17 07:41:33;;;;;;;8.33;6.97;;;21.60;99.90;;;;;;5066700;28;20195;-67
2023/08/17 07:43:58;;;;;;;8.47;6.53;;;21.70;99.90;;;;;;5067355;28;20191;-67
2023/08/17 07:46:24;;;;;;;10.10;6.67;;;21.80;99.90;;;;;;5068088;28;20176;-67
2023/08/17 07:48:50;;;;;;;10.53;7.23;;;21.90;99.90;;;;;;5071123;28;20213;-67
2023/08/17 07:51:15;;;;;;;9.10;6.70;;;22.00;99.90;;;;;;5070954;28;20216;-67
2023/08/17 07:53:41;;;;;;;10.10;5.97;;;22.00;99.90;;;;;;5070991;28;20258;-67
2023/08/17 07:56:07;;;;;;;8.40;6.67;;;22.20;99.90;;;;;;5070997;28;20189;-67
2023/08/17 07:58:32;;;;;;;9.53;7.30;;;22.30;99.90;;;;;;5070820;28;20231;-67
2023/08/17 08:00:58;;;;;;;9.80;6.40;;;22.40;99.90;;;;;;5070697;28;20268;-67
2023/08/17 08:03:24;;;;;;;11.17;6.80;;;22.40;99.90;;;;;;5070564;28;20711;-68
2023/08/17 08:05:49;;;;;;;9.70;6.90;;;22.30;99.90;;;;;;5070619;28;20643;-67
2023/08/17 08:08:17;;;;;;;6.80;6.10;;;22.30;99.90;;;;;;5070460;28;20189;-67
2023/08/17 08:10:43;;;;;;;7.27;5.40;;;22.30;99.90;;;;;;5052213;28;20193;-67
2023/08/17 08:13:09;;;;;;;6.67;6.00;;;22.40;99.90;;;;;;5070506;28;20443;-66
2023/08/17 08:15:34;;;;;;;6.57;5.83;;;22.40;99.90;;;;;;5070538;28;20423;-66
2023/08/17 08:18:00;;;;;;;9.23;6.03;;;22.50;99.90;;;;;;5070249;28;20214;-66
2023/08/17 08:20:26;;;;;;;7.30;5.63;;;22.40;99.90;;;;;;5070406;28;20812;-66
2023/08/17 08:22:51;;;;;;;6.97;5.77;;;22.40;99.90;;;;;;5070345;28;20278;-66
2023/08/17 08:25:17;;;;;;;7.40;5.70;;;22.40;99.90;;;;;;5070263;28;20183;-66
2023/08/17 08:27:42;;;;;;;7.50;6.40;;;22.60;99.90;;;;;;5070225;28;20191;-66
2023/08/17 08:30:08;;;;;;;10.60;5.90;;;22.70;99.90;;;;;;5051930;28;20205;-67
2023/08/17 08:32:34;;;;;;;6.20;5.60;;;22.90;99.90;;;;;;5069986;28;20205;-66
2023/08/17 08:35:00;;;;;;;5.80;4.80;;;23.10;99.90;;;;;;5070143;28;20549;-66
2023/08/17 08:37:25;;;;;;;8.23;6.00;;;23.20;99.90;;;;;;5070100;28;20173;-68
2023/08/17 08:39:53;;;;;;;7.73;5.20;;;23.30;99.90;;;;;;5070202;28;20621;-66
2023/08/17 08:42:19;;;;;;;6.17;5.60;;;23.50;99.90;;;;;;5070143;28;20191;-66
2023/08/17 08:44:45;;;;;;;7.07;6.37;;;23.60;99.90;;;;;;5070144;28;20837;-67
2023/08/17 08:47:12;;;;;;;8.07;6.53;;;23.80;99.90;;;;;;5069940;28;20409;-67
2023/08/17 08:50:03;;;;;;;13.43;7.20;;;23.80;99.90;;;;;;5070545;28;20424;-67
2023/08/17 08:52:42;;;;;;;8.47;7.00;;;24.00;99.90;;;;;;5069144;28;20483;-67
2023/08/17 08:55:23;;;;;;;7.53;6.83;;;24.00;99.90;;;;;;5069879;28;21037;-68
2023/08/17 08:57:49;;;;;;;9.23;6.70;;;24.20;99.90;;;;;;5069026;28;20425;-66
2023/08/17 09:00:16;;;;;;;8.20;6.37;;;24.20;99.90;;;;;;5070544;28;20427;-67
2023/08/17 09:02:43;;;;;;;8.57;6.47;;;24.30;99.90;;;;;;5070323;28;20440;-66
2023/08/17 09:05:11;;;;;;;10.87;7.27;;;24.40;99.90;;;;;;5070445;28;20424;-67
2023/08/17 09:07:39;;;;;;;12.23;6.80;;;24.50;99.90;;;;;;5070305;28;20473;-67
2023/08/17 09:10:05;;;;;;;6.40;5.83;;;24.70;99.90;;;;;;5052297;28;20425;-66
2023/08/17 09:12:30;;;;;;;11.50;7.20;;;24.90;99.90;;;;;;5070164;28;20813;-67
2023/08/17 09:14:56;;;;;;;8.00;6.70;;;25.00;99.90;;;;;;5070224;28;20421;-67
2023/08/17 09:17:27;;;;;;;7.03;5.90;;;25.20;99.90;;;;;;5070251;28;20261;-67
2023/08/17 09:19:53;;;;;;;8.57;6.33;;;25.40;99.90;;;;;;5070046;28;20480;-66
2023/08/17 09:22:36;;;;;;;11.50;7.10;;;25.70;99.90;;;;;;5069829;28;20436;-67
2023/08/17 09:25:01;;;;;;;8.80;5.70;;;25.90;99.90;;;;;;5069719;28;20421;-66
2023/08/17 09:27:27;;;;;;;8.23;6.43;;;26.10;99.90;;;;;;5051516;28;21042;-67
2023/08/17 09:30:00;;;;;;;10.83;7.10;;;26.30;99.90;;;;;;5069937;28;20221;-67
2023/08/17 09:32:30;;;;;;;7.67;6.87;;;26.40;99.90;;;;;;5069460;28;20221;-66
2023/08/17 09:34:56;;;;;;;8.43;6.50;;;26.60;99.90;;;;;;5069706;28;20398;-66
2023/08/17 09:37:21;;;;;;;9.60;6.53;;;26.90;99.90;;;;;;5069086;28;20428;-67
2023/08/17 09:39:47;;;;;;;6.37;5.40;;;27.00;99.90;;;;;;5051402;28;20203;-67
2023/08/17 09:42:15;;;;;;;6.60;5.93;;;27.20;99.90;;;;;;5069760;28;20202;-67
2023/08/17 09:44:42;;;;;;;7.67;5.70;;;27.30;99.90;;;;;;5069593;28;20409;-67
2023/08/17 09:47:07;;;;;;;6.20;5.60;;;27.30;99.90;;;;;;5069705;28;20958;-67
2023/08/17 09:49:33;;;;;;;11.50;6.03;;;27.50;99.90;;;;;;5069552;28;20452;-67
2023/08/17 09:52:02;;;;;;;15.73;6.10;;;27.80;99.90;;;;;;5069257;28;20732;-66
2023/08/17 09:54:31;;;;;;;5.53;5.03;;;28.30;99.90;;;;;;5069504;28;20261;-66
2023/08/17 09:56:57;;;;;;;6.33;5.57;;;28.60;99.90;;;;;;5069280;28;20418;-66
2023/08/17 09:59:23;;;;;;;8.17;5.90;;;28.60;99.90;;;;;;5069144;28;20473;-66
2023/08/17 10:01:51;;;;;;;7.20;5.50;;;28.70;99.90;;;;;;5051051;28;21002;-67
2023/08/17 10:04:24;;;;;;;5.37;4.87;;;29.00;99.90;;;;;;5068943;28;20183;-67
2023/08/17 10:06:59;;;;;;;6.97;5.50;;;29.00;99.90;;;;;;5069329;28;20412;-66
2023/08/17 10:09:28;;;;;;;7.93;5.70;;;29.00;99.90;;;;;;5068259;28;20424;-67
2023/08/17 10:11:57;;;;;;;7.00;5.80;;;28.90;99.90;;;;;;5068202;28;20437;-67
2023/08/17 10:14:30;;;;;;;6.93;5.17;;;29.20;99.90;;;;;;5068796;28;20429;-67
2023/08/17 10:17:02;;;;;;;8.27;4.80;;;29.50;99.90;;;;;;5050751;28;20417;-66
2023/08/17 10:19:27;;;;;;;6.00;5.40;;;29.70;99.90;;;;;;5068600;28;20458;-67
2023/08/17 10:21:56;;;;;;;5.93;5.43;;;29.90;99.90;;;;;;5068774;28;20784;-67
2023/08/17 10:24:21;;;;;;;5.83;5.03;;;29.80;99.90;;;;;;5068844;28;20241;-67
2023/08/17 10:26:48;;;;;;;9.00;5.37;;;29.90;99.90;;;;;;5068716;28;20409;-67
2023/08/17 10:29:14;;;;;;;5.53;5.03;;;29.90;99.90;;;;;;5068882;28;20191;-67
2023/08/17 10:31:45;;;;;;;4.80;4.40;;;30.30;99.90;;;;;;5068479;28;20591;-67
2023/08/17 10:34:11;;;;;;;5.50;5.00;;;30.70;99.90;;;;;;5068734;28;20422;-67
2023/08/17 10:36:37;;;;;;;5.70;5.20;;;30.90;99.90;;;;;;5068305;28;20936;-67
2023/08/17 10:39:26;;;;;;;5.87;5.30;;;31.10;99.90;;;;;;5068046;28;20937;-67
2023/08/17 10:41:53;;;;;;;5.33;4.90;;;31.30;99.90;;;;;;5067689;28;20948;-68
2023/08/17 10:44:38;;;;;;;5.03;4.63;;;31.00;99.90;;;;;;5067871;28;20448;-68
2023/08/17 10:47:36;;;;;;;5.80;4.50;;;30.50;99.90;;;;;;5067736;28;20409;-68
2023/08/17 10:50:20;;;;;;;5.23;4.70;;;30.20;99.90;;;;;;5012346;28;20562;-68
2023/08/17 10:52:48;;;;;;;6.90;5.80;;;30.10;99.90;;;;;;5067410;28;20439;-68
2023/08/17 10:55:14;;;;;;;6.07;4.70;;;30.00;99.90;;;;;;5067832;28;20429;-68
2023/08/17 10:57:43;;;;;;;5.40;5.00;;;30.00;99.90;;;;;;5049587;28;20413;-68
2023/08/17 11:00:31;;;;;;;7.07;5.17;;;29.80;99.90;;;;;;5067592;28;20191;-67
2023/08/17 11:03:17;;;;;;;5.40;4.70;;;29.70;99.90;;;;;;5067429;28;20599;-68
2023/08/17 11:05:49;;;;;;;6.00;5.50;;;29.60;99.90;;;;;;5067533;28;20401;-68
2023/08/17 11:08:38;;;;;;;5.33;4.80;;;29.70;99.90;;;;;;5067608;28;20441;-69
2023/08/17 11:11:07;;;;;;;5.10;4.67;;;29.70;99.90;;;;;;5067641;28;20461;-69
2023/08/17 11:13:37;;;;;;;5.33;4.83;;;29.70;99.90;;;;;;5049578;28;20444;-68
2023/08/17 11:16:05;;;;;;;5.37;4.90;;;29.60;99.90;;;;;;5068204;28;20420;-68
2023/08/17 11:18:32;;;;;;;6.37;5.07;;;29.60;99.90;;;;;;5067849;28;20934;-68
2023/08/17 11:20:58;;;;;;;6.10;5.60;;;29.60;99.90;;;;;;5049603;28;20417;-68
2023/08/17 11:23:24;;;;;;;5.70;5.07;;;29.50;99.90;;;;;;5067932;28;20861;-68
2023/08/17 11:25:52;;;;;;;5.40;4.90;;;29.50;99.90;;;;;;5067879;28;21077;-68
2023/08/17 11:28:18;;;;;;;6.10;5.00;;;29.50;99.90;;;;;;5067927;28;20409;-68
2023/08/17 11:30:43;;;;;;;5.90;5.40;;;29.60;99.90;;;;;;5067868;28;20451;-68
2023/08/17 11:33:10;;;;;;;5.47;4.97;;;29.50;99.90;;;;;;5050122;28;20915;-68
2023/08/17 11:35:37;;;;;;;6.33;5.47;;;29.40;99.90;;;;;;5050427;28;20179;-68
2023/08/17 11:38:05;;;;;;;5.83;5.10;;;29.60;99.90;;;;;;5068047;28;20999;-68
2023/08/17 11:40:32;;;;;;;6.53;5.50;;;29.60;99.90;;;;;;5068136;28;20781;-68
2023/08/17 11:42:58;;;;;;;6.13;5.20;;;29.70;99.90;;;;;;5067918;28;20421;-68
2023/08/17 11:45:24;;;;;;;6.60;5.37;;;29.70;99.90;;;;;;5067849;28;20958;-68
2023/08/17 11:47:49;;;;;;;6.70;5.30;;;29.80;99.90;;;;;;5049998;28;20463;-67
2023/08/17 11:50:15;;;;;;;5.93;5.33;;;29.90;99.90;;;;;;5067750;28;20179;-67
2023/08/17 11:52:41;;;;;;;5.40;4.87;;;29.70;99.90;;;;;;5067361;28;20198;-68
2023/08/17 11:55:11;;;;;;;6.10;5.43;;;29.40;99.90;;;;;;5067556;28;20207;-67
2023/08/17 11:57:37;;;;;;;5.50;5.00;;;29.20;99.90;;;;;;5067509;28;20187;-68
2023/08/17 12:00:09;;;;;;;7.03;5.40;;;29.10;99.90;;;;;;5067293;28;20469;-67
2023/08/17 12:02:41;;;;;;;7.77;5.93;;;28.80;99.90;;;;;;5067231;28;20444;-68
2023/08/17 12:05:09;;;;;;;6.13;5.53;;;28.60;99.90;;;;;;5066907;28;20948;-67
2023/08/17 12:07:35;;;;;;;6.40;5.33;;;28.20;99.90;;;;;;5066993;28;21220;-67
2023/08/17 12:10:03;;;;;;;6.63;5.57;;;27.90;99.90;;;;;;5066792;28;20961;-68
2023/08/17 12:12:29;;;;;;;7.50;6.30;;;27.80;99.90;;;;;;5066782;28;21023;-68
2023/08/17 12:14:54;;;;;;;7.60;6.33;;;27.60;99.90;;;;;;5066830;28;20413;-68
2023/08/17 12:17:21;;;;;;;7.47;5.60;;;27.50;99.90;;;;;;5066933;28;20418;-68
2023/08/17 12:19:53;;;;;;;6.40;5.63;;;27.30;99.90;;;;;;5066944;28;20686;-68
2023/08/17 12:22:19;;;;;;;10.13;6.50;;;27.10;99.90;;;;;;5066861;28;20441;-69
2023/08/17 12:24:45;;;;;;;6.30;5.70;;;26.90;99.90;;;;;;5066804;28;20439;-68
2023/08/17 12:27:11;;;;;;;6.70;6.10;;;26.80;99.90;;;;;;5066625;28;20241;-68
2023/08/17 12:29:49;;;;;;;8.30;6.23;;;26.60;99.90;;;;;;5066532;28;20211;-68
2023/08/17 12:32:17;;;;;;;9.13;6.30;;;26.50;99.90;;;;;;5066607;28;20452;-68
2023/08/17 12:34:43;;;;;;;12.53;6.70;;;26.30;99.90;;;;;;5069458;28;20456;-68
2023/08/17 12:37:17;;;;;;;5.97;5.43;;;26.20;99.90;;;;;;5070510;28;20452;-67
2023/08/17 12:39:43;;;;;;;6.70;6.10;;;26.10;99.90;;;;;;5070103;28;20213;-67
2023/08/17 12:42:09;;;;;;;10.83;6.10;;;26.00;99.90;;;;;;5070194;28;20445;-67